sensor_id;sensor_type;location;lat;lon;timestamp;P1;durP1;ratioP1;P2;durP2;ratioP2
64894;SDS011;51588;53.702;10.208;2023-07-20T00:00:58;1.40;;;1.30;;
64894;SDS011;51588;53.702;10.208;2023-07-20T00:03:30;1.40;;;1.30;;
64894;SDS011;51588;53.702;10.208;2023-07-20T00:05:57;1.20;;;1.10;;
64894;SDS011;51588;53.702;10.208;2023-07-20T00:08:23;1.50;;;1.40;;
64894;SDS011;51588;53.702;10.208;2023-07-20T00:10:50;1.73;;;1.30;;
64894;SDS011;51588;53.702;10.208;2023-07-20T00:13:16;2.13;;;1.20;;
64894;SDS011;51588;53.702;10.208;2023-07-20T00:15:45;1.50;;;1.40;;
64894;SDS011;51588;53.702;10.208;2023-07-20T00:18:11;1.30;;;1.20;;
64894;SDS011;51588;53.702;10.208;2023-07-20T00:20:38;1.57;;;1.30;;
64894;SDS011;51588;53.702;10.208;2023-07-20T00:23:04;1.40;;;1.30;;
64894;SDS011;51588;53.702;10.208;2023-07-20T00:25:31;1.63;;;1.30;;
64894;SDS011;51588;53.702;10.208;2023-07-20T00:27:58;1.30;;;1.20;;
64894;SDS011;51588;53.702;10.208;2023-07-20T00:30:24;1.63;;;1.40;;
64894;SDS011;51588;53.702;10.208;2023-07-20T00:32:52;1.27;;;1.17;;
64894;SDS011;51588;53.702;10.208;2023-07-20T00:35:19;1.37;;;1.27;;
64894;SDS011;51588;53.702;10.208;2023-07-20T00:37:45;1.27;;;1.10;;
64894;SDS011;51588;53.702;10.208;2023-07-20T00:40:11;1.27;;;1.17;;
64894;SDS011;51588;53.702;10.208;2023-07-20T00:42:38;5.13;;;1.10;;
64894;SDS011;51588;53.702;10.208;2023-07-20T00:45:05;1.60;;;1.40;;
64894;SDS011;51588;53.702;10.208;2023-07-20T00:47:31;1.37;;;1.27;;
64894;SDS011;51588;53.702;10.208;2023-07-20T00:49:59;1.50;;;1.20;;
64894;SDS011;51588;53.702;10.208;2023-07-20T00:52:26;1.37;;;1.10;;
64894;SDS011;51588;53.702;10.208;2023-07-20T00:54:53;1.50;;;1.40;;
64894;SDS011;51588;53.702;10.208;2023-07-20T00:57:21;1.40;;;1.10;;
64894;SDS011;51588;53.702;10.208;2023-07-20T00:59:48;1.30;;;1.20;;
64894;SDS011;51588;53.702;10.208;2023-07-20T01:02:15;2.57;;;1.30;;
64894;SDS011;51588;53.702;10.208;2023-07-20T01:04:41;1.37;;;1.27;;
64894;SDS011;51588;53.702;10.208;2023-07-20T01:07:10;1.10;;;1.00;;
64894;SDS011;51588;53.702;10.208;2023-07-20T01:09:39;1.20;;;1.10;;
64894;SDS011;51588;53.702;10.208;2023-07-20T01:12:09;1.27;;;1.17;;
64894;SDS011;51588;53.702;10.208;2023-07-20T01:14:38;1.30;;;1.20;;
64894;SDS011;51588;53.702;10.208;2023-07-20T01:17:05;1.00;;;0.90;;
64894;SDS011;51588;53.702;10.208;2023-07-20T01:19:31;1.20;;;1.10;;
64894;SDS011;51588;53.702;10.208;2023-07-20T01:21:59;1.27;;;1.17;;
64894;SDS011;51588;53.702;10.208;2023-07-20T01:24:35;1.30;;;1.20;;
64894;SDS011;51588;53.702;10.208;2023-07-20T01:27:19;1.17;;;1.07;;
64894;SDS011;51588;53.702;10.208;2023-07-20T01:30:01;1.37;;;1.10;;
64894;SDS011;51588;53.702;10.208;2023-07-20T01:32:31;1.40;;;1.30;;
64894;SDS011;51588;53.702;10.208;2023-07-20T01:34:57;2.23;;;1.50;;
64894;SDS011;51588;53.702;10.208;2023-07-20T01:37:24;1.60;;;1.10;;
64894;SDS011;51588;53.702;10.208;2023-07-20T01:39:53;1.37;;;1.17;;
64894;SDS011;51588;53.702;10.208;2023-07-20T01:42:20;1.40;;;1.30;;
64894;SDS011;51588;53.702;10.208;2023-07-20T01:44:50;1.00;;;0.90;;
64894;SDS011;51588;53.702;10.208;2023-07-20T01:47:16;1.40;;;1.20;;
64894;SDS011;51588;53.702;10.208;2023-07-20T01:49:44;1.33;;;1.23;;
64894;SDS011;51588;53.702;10.208;2023-07-20T01:52:10;1.33;;;1.03;;
64894;SDS011;51588;53.702;10.208;2023-07-20T01:54:37;1.30;;;1.20;;
64894;SDS011;51588;53.702;10.208;2023-07-20T01:57:03;1.77;;;1.13;;
64894;SDS011;51588;53.702;10.208;2023-07-20T01:59:30;1.20;;;1.10;;
64894;SDS011;51588;53.702;10.208;2023-07-20T02:01:56;1.40;;;1.30;;
64894;SDS011;51588;53.702;10.208;2023-07-20T02:04:22;1.60;;;1.40;;
64894;SDS011;51588;53.702;10.208;2023-07-20T02:06:50;1.30;;;1.20;;
64894;SDS011;51588;53.702;10.208;2023-07-20T02:09:17;1.30;;;1.20;;
64894;SDS011;51588;53.702;10.208;2023-07-20T02:11:43;1.10;;;1.00;;
64894;SDS011;51588;53.702;10.208;2023-07-20T02:14:09;1.17;;;1.07;;
64894;SDS011;51588;53.702;10.208;2023-07-20T02:16:36;1.20;;;1.10;;
64894;SDS011;51588;53.702;10.208;2023-07-20T02:19:02;1.33;;;1.23;;
64894;SDS011;51588;53.702;10.208;2023-07-20T02:21:32;1.50;;;1.20;;
64894;SDS011;51588;53.702;10.208;2023-07-20T02:24:00;1.90;;;1.30;;
64894;SDS011;51588;53.702;10.208;2023-07-20T02:26:27;1.70;;;1.30;;
64894;SDS011;51588;53.702;10.208;2023-07-20T02:28:53;1.40;;;1.30;;
64894;SDS011;51588;53.702;10.208;2023-07-20T02:31:20;1.60;;;1.50;;
64894;SDS011;51588;53.702;10.208;2023-07-20T02:33:46;1.40;;;1.20;;
64894;SDS011;51588;53.702;10.208;2023-07-20T02:36:12;1.27;;;1.17;;
64894;SDS011;51588;53.702;10.208;2023-07-20T02:38:39;1.20;;;1.10;;
64894;SDS011;51588;53.702;10.208;2023-07-20T02:41:06;1.30;;;1.20;;
64894;SDS011;51588;53.702;10.208;2023-07-20T02:43:33;1.30;;;1.20;;
64894;SDS011;51588;53.702;10.208;2023-07-20T02:45:59;1.30;;;1.20;;
64894;SDS011;51588;53.702;10.208;2023-07-20T02:48:25;1.30;;;1.20;;
64894;SDS011;51588;53.702;10.208;2023-07-20T02:50:52;1.40;;;1.30;;
64894;SDS011;51588;53.702;10.208;2023-07-20T02:53:18;2.33;;;1.10;;
64894;SDS011;51588;53.702;10.208;2023-07-20T02:55:44;1.73;;;1.20;;
64894;SDS011;51588;53.702;10.208;2023-07-20T02:58:12;1.40;;;1.30;;
64894;SDS011;51588;53.702;10.208;2023-07-20T03:00:39;2.60;;;1.20;;
64894;SDS011;51588;53.702;10.208;2023-07-20T03:03:05;1.80;;;1.10;;
64894;SDS011;51588;53.702;10.208;2023-07-20T03:05:34;1.33;;;1.23;;
64894;SDS011;51588;53.702;10.208;2023-07-20T03:08:00;1.60;;;1.40;;
64894;SDS011;51588;53.702;10.208;2023-07-20T03:10:28;2.13;;;1.47;;
64894;SDS011;51588;53.702;10.208;2023-07-20T03:12:54;1.57;;;1.20;;
64894;SDS011;51588;53.702;10.208;2023-07-20T03:15:22;1.33;;;1.00;;
64894;SDS011;51588;53.702;10.208;2023-07-20T03:17:49;1.43;;;1.20;;
64894;SDS011;51588;53.702;10.208;2023-07-20T03:20:16;1.23;;;1.13;;
64894;SDS011;51588;53.702;10.208;2023-07-20T03:22:43;1.40;;;1.30;;
64894;SDS011;51588;53.702;10.208;2023-07-20T03:25:09;1.30;;;1.20;;
64894;SDS011;51588;53.702;10.208;2023-07-20T03:27:35;1.30;;;1.20;;
64894;SDS011;51588;53.702;10.208;2023-07-20T03:30:02;1.27;;;1.17;;
64894;SDS011;51588;53.702;10.208;2023-07-20T03:32:30;1.50;;;1.20;;
64894;SDS011;51588;53.702;10.208;2023-07-20T03:34:56;1.43;;;1.30;;
64894;SDS011;51588;53.702;10.208;2023-07-20T03:37:22;1.33;;;1.20;;
64894;SDS011;51588;53.702;10.208;2023-07-20T03:39:49;1.40;;;1.30;;
64894;SDS011;51588;53.702;10.208;2023-07-20T03:42:15;2.07;;;1.27;;
64894;SDS011;51588;53.702;10.208;2023-07-20T03:44:42;1.77;;;1.47;;
64894;SDS011;51588;53.702;10.208;2023-07-20T03:47:08;1.50;;;1.40;;
64894;SDS011;51588;53.702;10.208;2023-07-20T03:49:36;2.10;;;1.30;;
64894;SDS011;51588;53.702;10.208;2023-07-20T03:52:03;1.33;;;1.23;;
64894;SDS011;51588;53.702;10.208;2023-07-20T03:54:29;1.40;;;1.30;;
64894;SDS011;51588;53.702;10.208;2023-07-20T03:56:56;1.37;;;1.27;;
64894;SDS011;51588;53.702;10.208;2023-07-20T03:59:22;1.40;;;1.30;;
64894;SDS011;51588;53.702;10.208;2023-07-20T04:01:48;1.40;;;1.30;;
64894;SDS011;51588;53.702;10.208;2023-07-20T04:04:15;1.30;;;1.20;;
64894;SDS011;51588;53.702;10.208;2023-07-20T04:06:43;1.40;;;1.30;;
64894;SDS011;51588;53.702;10.208;2023-07-20T04:09:11;1.40;;;1.30;;
64894;SDS011;51588;53.702;10.208;2023-07-20T04:11:37;1.30;;;1.17;;
64894;SDS011;51588;53.702;10.208;2023-07-20T04:14:04;1.30;;;1.20;;
64894;SDS011;51588;53.702;10.208;2023-07-20T04:16:30;1.43;;;1.30;;
64894;SDS011;51588;53.702;10.208;2023-07-20T04:18:58;1.30;;;1.20;;
64894;SDS011;51588;53.702;10.208;2023-07-20T04:21:25;1.70;;;1.50;;
64894;SDS011;51588;53.702;10.208;2023-07-20T04:23:53;2.20;;;1.57;;
64894;SDS011;51588;53.702;10.208;2023-07-20T04:26:19;1.23;;;0.97;;
64894;SDS011;51588;53.702;10.208;2023-07-20T04:28:45;1.80;;;1.20;;
64894;SDS011;51588;53.702;10.208;2023-07-20T04:31:13;1.63;;;1.23;;
64894;SDS011;51588;53.702;10.208;2023-07-20T04:33:39;1.37;;;1.17;;
64894;SDS011;51588;53.702;10.208;2023-07-20T04:36:06;1.20;;;1.10;;
64894;SDS011;51588;53.702;10.208;2023-07-20T04:38:32;1.17;;;1.07;;
64894;SDS011;51588;53.702;10.208;2023-07-20T04:41:00;1.83;;;1.30;;
64894;SDS011;51588;53.702;10.208;2023-07-20T04:43:26;1.37;;;1.27;;
64894;SDS011;51588;53.702;10.208;2023-07-20T04:45:53;1.37;;;1.23;;
64894;SDS011;51588;53.702;10.208;2023-07-20T04:48:19;2.00;;;1.17;;
64894;SDS011;51588;53.702;10.208;2023-07-20T04:50:46;1.20;;;1.10;;
64894;SDS011;51588;53.702;10.208;2023-07-20T04:53:12;1.50;;;1.40;;
64894;SDS011;51588;53.702;10.208;2023-07-20T04:55:39;1.63;;;1.47;;
64894;SDS011;51588;53.702;10.208;2023-07-20T04:58:07;2.63;;;1.30;;
64894;SDS011;51588;53.702;10.208;2023-07-20T05:00:33;1.30;;;1.20;;
64894;SDS011;51588;53.702;10.208;2023-07-20T05:03:00;1.37;;;1.27;;
64894;SDS011;51588;53.702;10.208;2023-07-20T05:05:26;1.40;;;1.30;;
64894;SDS011;51588;53.702;10.208;2023-07-20T05:07:52;1.70;;;1.30;;
64894;SDS011;51588;53.702;10.208;2023-07-20T05:10:19;1.40;;;1.30;;
64894;SDS011;51588;53.702;10.208;2023-07-20T05:12:46;1.50;;;1.40;;
64894;SDS011;51588;53.702;10.208;2023-07-20T05:15:13;1.43;;;1.20;;
64894;SDS011;51588;53.702;10.208;2023-07-20T05:17:40;2.03;;;1.30;;
64894;SDS011;51588;53.702;10.208;2023-07-20T05:20:06;1.57;;;1.47;;
64894;SDS011;51588;53.702;10.208;2023-07-20T05:22:35;2.00;;;1.20;;
64894;SDS011;51588;53.702;10.208;2023-07-20T05:25:01;1.57;;;1.47;;
64894;SDS011;51588;53.702;10.208;2023-07-20T05:27:27;1.37;;;1.27;;
64894;SDS011;51588;53.702;10.208;2023-07-20T05:29:54;1.53;;;1.43;;
64894;SDS011;51588;53.702;10.208;2023-07-20T05:32:21;1.70;;;1.50;;
64894;SDS011;51588;53.702;10.208;2023-07-20T05:34:51;1.40;;;1.30;;
64894;SDS011;51588;53.702;10.208;2023-07-20T05:37:17;1.53;;;1.43;;
64894;SDS011;51588;53.702;10.208;2023-07-20T05:39:43;1.40;;;1.30;;
64894;SDS011;51588;53.702;10.208;2023-07-20T05:42:10;1.40;;;1.30;;
64894;SDS011;51588;53.702;10.208;2023-07-20T05:44:36;2.40;;;1.33;;
64894;SDS011;51588;53.702;10.208;2023-07-20T05:47:03;1.70;;;1.43;;
64894;SDS011;51588;53.702;10.208;2023-07-20T05:49:30;1.60;;;1.50;;
64894;SDS011;51588;53.702;10.208;2023-07-20T05:51:57;12.23;;;2.70;;
64894;SDS011;51588;53.702;10.208;2023-07-20T05:54:23;14.60;;;4.37;;
64894;SDS011;51588;53.702;10.208;2023-07-20T05:56:50;17.03;;;3.80;;
64894;SDS011;51588;53.702;10.208;2023-07-20T05:59:16;11.90;;;3.80;;
64894;SDS011;51588;53.702;10.208;2023-07-20T06:01:43;7.97;;;3.30;;
64894;SDS011;51588;53.702;10.208;2023-07-20T06:04:09;11.90;;;3.50;;
64894;SDS011;51588;53.702;10.208;2023-07-20T06:06:37;13.43;;;3.90;;
64894;SDS011;51588;53.702;10.208;2023-07-20T06:09:03;14.93;;;3.70;;
64894;SDS011;51588;53.702;10.208;2023-07-20T06:11:32;18.30;;;3.73;;
64894;SDS011;51588;53.702;10.208;2023-07-20T06:13:59;34.13;;;8.00;;
64894;SDS011;51588;53.702;10.208;2023-07-20T06:16:25;79.23;;;14.13;;
64894;SDS011;51588;53.702;10.208;2023-07-20T06:18:52;86.03;;;15.87;;
64894;SDS011;51588;53.702;10.208;2023-07-20T06:21:18;76.23;;;14.20;;
64894;SDS011;51588;53.702;10.208;2023-07-20T06:23:46;61.20;;;13.23;;
64894;SDS011;51588;53.702;10.208;2023-07-20T06:26:12;72.87;;;12.90;;
64894;SDS011;51588;53.702;10.208;2023-07-20T06:28:39;66.87;;;12.23;;
64894;SDS011;51588;53.702;10.208;2023-07-20T06:31:05;47.70;;;11.00;;
64894;SDS011;51588;53.702;10.208;2023-07-20T06:33:31;68.60;;;10.60;;
64894;SDS011;51588;53.702;10.208;2023-07-20T06:35:58;58.63;;;9.77;;
64894;SDS011;51588;53.702;10.208;2023-07-20T06:38:24;35.13;;;7.47;;
64894;SDS011;51588;53.702;10.208;2023-07-20T06:40:52;24.97;;;4.70;;
64894;SDS011;51588;53.702;10.208;2023-07-20T06:43:18;12.10;;;3.43;;
64894;SDS011;51588;53.702;10.208;2023-07-20T06:45:50;10.23;;;2.60;;
64894;SDS011;51588;53.702;10.208;2023-07-20T06:48:16;11.67;;;3.00;;
64894;SDS011;51588;53.702;10.208;2023-07-20T06:50:43;6.13;;;2.23;;
64894;SDS011;51588;53.702;10.208;2023-07-20T06:53:09;4.47;;;1.90;;
64894;SDS011;51588;53.702;10.208;2023-07-20T06:55:36;5.60;;;2.07;;
64894;SDS011;51588;53.702;10.208;2023-07-20T06:58:03;10.07;;;2.30;;
64894;SDS011;51588;53.702;10.208;2023-07-20T07:00:30;6.90;;;2.10;;
64894;SDS011;51588;53.702;10.208;2023-07-20T07:02:56;5.77;;;1.83;;
64894;SDS011;51588;53.702;10.208;2023-07-20T07:05:22;9.60;;;1.97;;
64894;SDS011;51588;53.702;10.208;2023-07-20T07:07:49;9.50;;;2.20;;
64894;SDS011;51588;53.702;10.208;2023-07-20T07:10:15;13.43;;;2.13;;
64894;SDS011;51588;53.702;10.208;2023-07-20T07:12:42;5.10;;;2.00;;
64894;SDS011;51588;53.702;10.208;2023-07-20T07:15:10;9.57;;;2.13;;
64894;SDS011;51588;53.702;10.208;2023-07-20T07:17:36;4.90;;;2.03;;
64894;SDS011;51588;53.702;10.208;2023-07-20T07:20:03;4.10;;;2.00;;
64894;SDS011;51588;53.702;10.208;2023-07-20T07:22:30;6.10;;;1.83;;
64894;SDS011;51588;53.702;10.208;2023-07-20T07:24:56;6.50;;;2.10;;
64894;SDS011;51588;53.702;10.208;2023-07-20T07:27:23;7.43;;;2.57;;
64894;SDS011;51588;53.702;10.208;2023-07-20T07:29:49;6.97;;;3.40;;
64894;SDS011;51588;53.702;10.208;2023-07-20T07:32:17;4.23;;;2.00;;
64894;SDS011;51588;53.702;10.208;2023-07-20T07:34:43;8.97;;;2.03;;
64894;SDS011;51588;53.702;10.208;2023-07-20T07:37:11;6.83;;;1.73;;
64894;SDS011;51588;53.702;10.208;2023-07-20T07:39:37;4.47;;;2.27;;
64894;SDS011;51588;53.702;10.208;2023-07-20T07:42:04;5.70;;;2.40;;
64894;SDS011;51588;53.702;10.208;2023-07-20T07:44:30;4.10;;;2.00;;
64894;SDS011;51588;53.702;10.208;2023-07-20T07:46:57;5.17;;;1.80;;
64894;SDS011;51588;53.702;10.208;2023-07-20T07:49:25;4.80;;;1.83;;
64894;SDS011;51588;53.702;10.208;2023-07-20T07:51:52;3.23;;;1.97;;
64894;SDS011;51588;53.702;10.208;2023-07-20T07:54:18;9.43;;;1.80;;
64894;SDS011;51588;53.702;10.208;2023-07-20T07:56:45;3.97;;;2.20;;
64894;SDS011;51588;53.702;10.208;2023-07-20T07:59:11;3.37;;;1.77;;
64894;SDS011;51588;53.702;10.208;2023-07-20T08:01:37;5.50;;;1.83;;
64894;SDS011;51588;53.702;10.208;2023-07-20T08:04:04;3.37;;;1.80;;
64894;SDS011;51588;53.702;10.208;2023-07-20T08:06:31;3.00;;;1.70;;
64894;SDS011;51588;53.702;10.208;2023-07-20T08:08:58;3.50;;;2.10;;
64894;SDS011;51588;53.702;10.208;2023-07-20T08:11:24;4.33;;;2.00;;
64894;SDS011;51588;53.702;10.208;2023-07-20T08:13:50;6.10;;;2.00;;
64894;SDS011;51588;53.702;10.208;2023-07-20T08:16:17;4.97;;;1.90;;
64894;SDS011;51588;53.702;10.208;2023-07-20T08:18:43;5.50;;;2.00;;
64894;SDS011;51588;53.702;10.208;2023-07-20T08:21:10;3.50;;;1.90;;
64894;SDS011;51588;53.702;10.208;2023-07-20T08:23:38;9.00;;;2.40;;
64894;SDS011;51588;53.702;10.208;2023-07-20T08:26:04;11.03;;;2.07;;
64894;SDS011;51588;53.702;10.208;2023-07-20T08:28:31;6.50;;;2.50;;
64894;SDS011;51588;53.702;10.208;2023-07-20T08:30:57;12.03;;;2.30;;
64894;SDS011;51588;53.702;10.208;2023-07-20T08:33:23;5.70;;;2.13;;
64894;SDS011;51588;53.702;10.208;2023-07-20T08:35:50;4.10;;;1.80;;
64894;SDS011;51588;53.702;10.208;2023-07-20T08:38:16;6.33;;;2.30;;
64894;SDS011;51588;53.702;10.208;2023-07-20T08:40:45;7.20;;;2.30;;
64894;SDS011;51588;53.702;10.208;2023-07-20T08:43:12;6.10;;;2.50;;
64894;SDS011;51588;53.702;10.208;2023-07-20T08:45:39;4.40;;;2.20;;
64894;SDS011;51588;53.702;10.208;2023-07-20T08:48:06;4.90;;;2.47;;
64894;SDS011;51588;53.702;10.208;2023-07-20T08:50:33;6.97;;;2.37;;
64894;SDS011;51588;53.702;10.208;2023-07-20T08:53:00;4.67;;;2.37;;
64894;SDS011;51588;53.702;10.208;2023-07-20T08:55:28;7.07;;;2.60;;
64894;SDS011;51588;53.702;10.208;2023-07-20T08:57:57;8.90;;;2.30;;
64894;SDS011;51588;53.702;10.208;2023-07-20T09:00:24;6.47;;;2.40;;
64894;SDS011;51588;53.702;10.208;2023-07-20T09:02:52;7.40;;;2.30;;
64894;SDS011;51588;53.702;10.208;2023-07-20T09:05:18;7.90;;;2.60;;
64894;SDS011;51588;53.702;10.208;2023-07-20T09:07:45;4.40;;;2.10;;
64894;SDS011;51588;53.702;10.208;2023-07-20T09:10:12;4.67;;;2.53;;
64894;SDS011;51588;53.702;10.208;2023-07-20T09:12:38;8.50;;;2.93;;
64894;SDS011;51588;53.702;10.208;2023-07-20T09:15:07;4.80;;;2.30;;
64894;SDS011;51588;53.702;10.208;2023-07-20T09:17:34;6.00;;;2.50;;
64894;SDS011;51588;53.702;10.208;2023-07-20T09:20:02;5.47;;;2.60;;
64894;SDS011;51588;53.702;10.208;2023-07-20T09:22:33;4.50;;;2.20;;
64894;SDS011;51588;53.702;10.208;2023-07-20T09:24:59;4.43;;;2.20;;
64894;SDS011;51588;53.702;10.208;2023-07-20T09:27:29;4.77;;;2.40;;
64894;SDS011;51588;53.702;10.208;2023-07-20T09:30:01;5.80;;;2.37;;
64894;SDS011;51588;53.702;10.208;2023-07-20T09:32:29;4.83;;;2.17;;
64894;SDS011;51588;53.702;10.208;2023-07-20T09:34:55;4.10;;;2.37;;
64894;SDS011;51588;53.702;10.208;2023-07-20T09:37:21;2.70;;;1.90;;
64894;SDS011;51588;53.702;10.208;2023-07-20T09:39:48;4.03;;;2.13;;
64894;SDS011;51588;53.702;10.208;2023-07-20T09:42:17;3.50;;;1.90;;
64894;SDS011;51588;53.702;10.208;2023-07-20T09:44:44;5.63;;;2.63;;
64894;SDS011;51588;53.702;10.208;2023-07-20T09:47:10;6.10;;;2.00;;
64894;SDS011;51588;53.702;10.208;2023-07-20T09:49:40;6.03;;;2.27;;
64894;SDS011;51588;53.702;10.208;2023-07-20T09:52:07;7.63;;;2.00;;
64894;SDS011;51588;53.702;10.208;2023-07-20T09:54:34;5.90;;;2.33;;
64894;SDS011;51588;53.702;10.208;2023-07-20T09:57:01;6.80;;;2.37;;
64894;SDS011;51588;53.702;10.208;2023-07-20T09:59:28;5.70;;;2.20;;
64894;SDS011;51588;53.702;10.208;2023-07-20T10:01:55;3.30;;;2.10;;
64894;SDS011;51588;53.702;10.208;2023-07-20T10:04:24;6.70;;;2.30;;
64894;SDS011;51588;53.702;10.208;2023-07-20T10:06:52;8.70;;;2.20;;
64894;SDS011;51588;53.702;10.208;2023-07-20T10:09:20;4.73;;;2.87;;
64894;SDS011;51588;53.702;10.208;2023-07-20T10:11:49;7.50;;;2.47;;
64894;SDS011;51588;53.702;10.208;2023-07-20T10:14:16;5.23;;;2.60;;
64894;SDS011;51588;53.702;10.208;2023-07-20T10:16:48;12.63;;;3.07;;
64894;SDS011;51588;53.702;10.208;2023-07-20T10:19:17;6.13;;;2.70;;
64894;SDS011;51588;53.702;10.208;2023-07-20T10:21:51;5.23;;;2.27;;
64894;SDS011;51588;53.702;10.208;2023-07-20T10:24:20;14.50;;;2.70;;
64894;SDS011;51588;53.702;10.208;2023-07-20T10:26:47;9.90;;;3.17;;
64894;SDS011;51588;53.702;10.208;2023-07-20T10:29:13;9.07;;;2.87;;
64894;SDS011;51588;53.702;10.208;2023-07-20T10:31:46;7.97;;;2.67;;
64894;SDS011;51588;53.702;10.208;2023-07-20T10:34:13;8.20;;;3.07;;
64894;SDS011;51588;53.702;10.208;2023-07-20T10:36:43;12.07;;;2.60;;
64894;SDS011;51588;53.702;10.208;2023-07-20T10:39:13;10.50;;;3.67;;
64894;SDS011;51588;53.702;10.208;2023-07-20T10:41:49;12.73;;;4.37;;
64894;SDS011;51588;53.702;10.208;2023-07-20T10:44:19;7.90;;;3.40;;
64894;SDS011;51588;53.702;10.208;2023-07-20T10:46:46;15.70;;;3.63;;
64894;SDS011;51588;53.702;10.208;2023-07-20T10:49:13;8.90;;;2.97;;
64894;SDS011;51588;53.702;10.208;2023-07-20T10:51:40;10.23;;;2.73;;
64894;SDS011;51588;53.702;10.208;2023-07-20T10:54:07;9.37;;;2.80;;
64894;SDS011;51588;53.702;10.208;2023-07-20T10:56:33;8.23;;;2.90;;
64894;SDS011;51588;53.702;10.208;2023-07-20T10:59:02;11.63;;;3.00;;
64894;SDS011;51588;53.702;10.208;2023-07-20T11:01:43;11.37;;;2.83;;
64894;SDS011;51588;53.702;10.208;2023-07-20T11:04:10;11.90;;;3.10;;
64894;SDS011;51588;53.702;10.208;2023-07-20T11:06:36;12.67;;;2.67;;
64894;SDS011;51588;53.702;10.208;2023-07-20T11:09:07;9.90;;;2.60;;
64894;SDS011;51588;53.702;10.208;2023-07-20T11:11:36;14.03;;;2.63;;
64894;SDS011;51588;53.702;10.208;2023-07-20T11:14:04;6.87;;;2.80;;
64894;SDS011;51588;53.702;10.208;2023-07-20T11:16:32;5.40;;;2.40;;
64894;SDS011;51588;53.702;10.208;2023-07-20T11:18:59;4.47;;;2.40;;
64894;SDS011;51588;53.702;10.208;2023-07-20T11:21:25;7.10;;;2.23;;
64894;SDS011;51588;53.702;10.208;2023-07-20T11:23:52;6.37;;;2.30;;
64894;SDS011;51588;53.702;10.208;2023-07-20T11:26:18;4.90;;;2.00;;
64894;SDS011;51588;53.702;10.208;2023-07-20T11:28:47;7.53;;;2.23;;
64894;SDS011;51588;53.702;10.208;2023-07-20T11:31:15;6.30;;;2.57;;
64894;SDS011;51588;53.702;10.208;2023-07-20T11:33:42;4.20;;;2.00;;
64894;SDS011;51588;53.702;10.208;2023-07-20T11:36:08;5.50;;;2.30;;
64894;SDS011;51588;53.702;10.208;2023-07-20T11:38:35;5.77;;;2.00;;
64894;SDS011;51588;53.702;10.208;2023-07-20T11:41:02;6.90;;;2.17;;
64894;SDS011;51588;53.702;10.208;2023-07-20T11:43:28;4.40;;;2.30;;
64894;SDS011;51588;53.702;10.208;2023-07-20T11:45:55;9.40;;;2.30;;
64894;SDS011;51588;53.702;10.208;2023-07-20T11:48:23;3.63;;;1.80;;
64894;SDS011;51588;53.702;10.208;2023-07-20T11:50:50;7.47;;;1.60;;
64894;SDS011;51588;53.702;10.208;2023-07-20T11:53:16;2.40;;;1.50;;
64894;SDS011;51588;53.702;10.208;2023-07-20T11:55:43;4.80;;;1.70;;
64894;SDS011;51588;53.702;10.208;2023-07-20T11:58:11;4.37;;;2.00;;
64894;SDS011;51588;53.702;10.208;2023-07-20T12:00:38;2.60;;;1.53;;
64894;SDS011;51588;53.702;10.208;2023-07-20T12:03:05;2.70;;;1.30;;
64894;SDS011;51588;53.702;10.208;2023-07-20T12:05:33;2.97;;;1.70;;
64894;SDS011;51588;53.702;10.208;2023-07-20T12:08:00;2.57;;;1.30;;
64894;SDS011;51588;53.702;10.208;2023-07-20T12:10:30;5.20;;;1.40;;
64894;SDS011;51588;53.702;10.208;2023-07-20T12:13:00;3.00;;;1.33;;
64894;SDS011;51588;53.702;10.208;2023-07-20T12:15:27;4.43;;;1.93;;
64894;SDS011;51588;53.702;10.208;2023-07-20T12:17:55;6.00;;;1.47;;
64894;SDS011;51588;53.702;10.208;2023-07-20T12:20:25;4.40;;;1.30;;
64894;SDS011;51588;53.702;10.208;2023-07-20T12:22:55;3.67;;;1.50;;
64894;SDS011;51588;53.702;10.208;2023-07-20T12:25:21;2.90;;;1.43;;
64894;SDS011;51588;53.702;10.208;2023-07-20T12:27:48;2.70;;;1.50;;
64894;SDS011;51588;53.702;10.208;2023-07-20T12:30:14;4.73;;;1.40;;
64894;SDS011;51588;53.702;10.208;2023-07-20T12:32:41;4.53;;;1.40;;
64894;SDS011;51588;53.702;10.208;2023-07-20T12:35:07;4.23;;;1.40;;
64894;SDS011;51588;53.702;10.208;2023-07-20T12:37:34;1.63;;;1.17;;
64894;SDS011;51588;53.702;10.208;2023-07-20T12:40:01;3.83;;;2.07;;
64894;SDS011;51588;53.702;10.208;2023-07-20T12:42:29;3.43;;;1.13;;
64894;SDS011;51588;53.702;10.208;2023-07-20T12:44:55;2.63;;;1.43;;
64894;SDS011;51588;53.702;10.208;2023-07-20T12:47:21;3.43;;;1.77;;
64894;SDS011;51588;53.702;10.208;2023-07-20T12:49:48;4.00;;;1.63;;
64894;SDS011;51588;53.702;10.208;2023-07-20T12:52:14;6.17;;;1.40;;
64894;SDS011;51588;53.702;10.208;2023-07-20T12:54:41;6.77;;;1.70;;
64894;SDS011;51588;53.702;10.208;2023-07-20T12:57:08;3.33;;;1.70;;
64894;SDS011;51588;53.702;10.208;2023-07-20T12:59:35;1.70;;;1.23;;
64894;SDS011;51588;53.702;10.208;2023-07-20T13:02:01;5.23;;;1.63;;
64894;SDS011;51588;53.702;10.208;2023-07-20T13:04:27;5.27;;;1.70;;
64894;SDS011;51588;53.702;10.208;2023-07-20T13:06:54;1.63;;;1.17;;
64894;SDS011;51588;53.702;10.208;2023-07-20T13:09:20;7.57;;;1.43;;
64894;SDS011;51588;53.702;10.208;2023-07-20T13:11:47;4.00;;;1.50;;
64894;SDS011;51588;53.702;10.208;2023-07-20T13:14:14;3.43;;;1.47;;
64894;SDS011;51588;53.702;10.208;2023-07-20T13:16:41;6.63;;;1.70;;
64894;SDS011;51588;53.702;10.208;2023-07-20T13:19:07;2.07;;;1.37;;
64894;SDS011;51588;53.702;10.208;2023-07-20T13:21:34;2.43;;;1.33;;
64894;SDS011;51588;53.702;10.208;2023-07-20T13:24:00;9.33;;;1.30;;
64894;SDS011;51588;53.702;10.208;2023-07-20T13:26:27;4.37;;;1.40;;
64894;SDS011;51588;53.702;10.208;2023-07-20T13:28:53;2.60;;;1.50;;
64894;SDS011;51588;53.702;10.208;2023-07-20T13:31:22;3.17;;;1.70;;
64894;SDS011;51588;53.702;10.208;2023-07-20T13:33:48;2.80;;;1.53;;
64894;SDS011;51588;53.702;10.208;2023-07-20T13:36:14;2.90;;;1.30;;
64894;SDS011;51588;53.702;10.208;2023-07-20T13:38:41;2.60;;;1.30;;
64894;SDS011;51588;53.702;10.208;2023-07-20T13:41:07;1.73;;;1.00;;
64894;SDS011;51588;53.702;10.208;2023-07-20T13:43:33;4.70;;;1.50;;
64894;SDS011;51588;53.702;10.208;2023-07-20T13:46:00;2.83;;;1.47;;
64894;SDS011;51588;53.702;10.208;2023-07-20T13:48:27;4.93;;;1.33;;
64894;SDS011;51588;53.702;10.208;2023-07-20T13:50:54;3.10;;;1.70;;
64894;SDS011;51588;53.702;10.208;2023-07-20T13:53:20;3.93;;;1.33;;
64894;SDS011;51588;53.702;10.208;2023-07-20T13:55:47;3.63;;;1.60;;
64894;SDS011;51588;53.702;10.208;2023-07-20T13:58:13;4.03;;;1.77;;
64894;SDS011;51588;53.702;10.208;2023-07-20T14:00:40;3.57;;;1.57;;
64894;SDS011;51588;53.702;10.208;2023-07-20T14:03:06;3.17;;;1.40;;
64894;SDS011;51588;53.702;10.208;2023-07-20T14:05:34;3.00;;;1.30;;
64894;SDS011;51588;53.702;10.208;2023-07-20T14:08:01;10.03;;;1.57;;
64894;SDS011;51588;53.702;10.208;2023-07-20T14:10:27;3.37;;;1.30;;
64894;SDS011;51588;53.702;10.208;2023-07-20T14:12:53;2.63;;;1.30;;
64894;SDS011;51588;53.702;10.208;2023-07-20T14:15:20;2.70;;;1.20;;
64894;SDS011;51588;53.702;10.208;2023-07-20T14:17:46;6.07;;;1.43;;
64894;SDS011;51588;53.702;10.208;2023-07-20T14:20:13;2.53;;;1.53;;
64894;SDS011;51588;53.702;10.208;2023-07-20T14:22:40;5.13;;;1.37;;
64894;SDS011;51588;53.702;10.208;2023-07-20T14:25:07;3.60;;;1.57;;
64894;SDS011;51588;53.702;10.208;2023-07-20T14:27:34;4.80;;;1.43;;
64894;SDS011;51588;53.702;10.208;2023-07-20T14:30:00;5.83;;;1.30;;
64894;SDS011;51588;53.702;10.208;2023-07-20T14:32:27;1.57;;;1.10;;